createdAt,value
2022-09-05T00:01:27.639Z,3.10
2022-09-05T00:04:03.476Z,2.63
2022-09-05T00:06:52.390Z,2.30
2022-09-05T00:09:41.809Z,2.40
2022-09-05T00:12:11.889Z,2.70
2022-09-05T00:15:16.936Z,2.30
2022-09-05T00:18:56.491Z,2.40
2022-09-05T00:24:28.565Z,2.77
2022-09-05T00:24:42.059Z,2.70
2022-09-05T00:26:29.528Z,2.77
2022-09-05T00:29:04.396Z,2.73
2022-09-05T00:31:54.006Z,2.90
2022-09-05T00:34:47.919Z,3.90
2022-09-05T00:37:27.981Z,3.60
2022-09-05T00:40:17.442Z,2.70
2022-09-05T00:42:48.974Z,3.37
2022-09-05T00:45:20.729Z,3.10
2022-09-05T00:47:49.853Z,3.00
2022-09-05T00:50:23.190Z,3.00
2022-09-05T00:53:06.551Z,3.07
2022-09-05T00:55:40.824Z,3.37
2022-09-05T00:58:20.381Z,3.33
2022-09-05T01:00:53.098Z,3.27
2022-09-05T01:03:45.640Z,3.00
2022-09-05T01:06:19.159Z,2.90
2022-09-05T01:09:09.432Z,3.33
2022-09-05T01:11:54.109Z,3.17
2022-09-05T01:14:35.236Z,3.10
2022-09-05T01:17:12.409Z,3.07
2022-09-05T01:19:52.059Z,3.73
2022-09-05T01:22:40.703Z,4.40
2022-09-05T01:25:16.595Z,4.30
2022-09-05T01:29:06.493Z,4.63
2022-09-05T01:30:42.280Z,4.00
2022-09-05T01:33:18.980Z,4.13
2022-09-05T01:36:03.446Z,4.20
2022-09-05T01:38:37.481Z,4.53
2022-09-05T01:41:19.232Z,4.60
2022-09-05T01:44:11.379Z,4.63
2022-09-05T01:46:43.764Z,4.30
2022-09-05T01:49:25.002Z,4.37
2022-09-05T01:52:10.875Z,4.63
2022-09-05T01:54:45.987Z,4.07
2022-09-05T01:57:21.547Z,4.27
2022-09-05T01:59:56.160Z,4.20
2022-09-05T02:02:33.326Z,4.53
2022-09-05T02:05:13.423Z,4.73
2022-09-05T02:07:56.147Z,5.47
2022-09-05T02:10:44.395Z,5.50
2022-09-05T02:13:18.774Z,5.10
2022-09-05T02:15:59.133Z,5.93
2022-09-05T02:18:30.808Z,6.13
2022-09-05T02:21:01.044Z,6.17
2022-09-05T02:23:41.599Z,5.10
2022-09-05T02:26:14.073Z,5.97
2022-09-05T02:28:45.276Z,5.53
2022-09-05T02:31:19.793Z,5.77
2022-09-05T02:34:01.805Z,5.87
2022-09-05T02:36:35.649Z,5.17
2022-09-05T02:43:09.316Z,5.63
2022-09-05T02:45:19.431Z,5.53
2022-09-05T02:45:20.931Z,5.63
2022-09-05T02:47:47.324Z,5.37
2022-09-05T02:53:06.548Z,4.87
2022-09-05T02:57:33.266Z,5.17
2022-09-05T02:57:37.227Z,5.60
2022-09-05T02:59:13.897Z,5.00
2022-09-05T03:01:55.597Z,5.30
2022-09-05T03:04:31.022Z,5.67
2022-09-05T03:07:26.551Z,5.47
2022-09-05T03:10:17.768Z,5.50
2022-09-05T03:13:15.922Z,5.27
2022-09-05T03:16:11.469Z,5.20
2022-09-05T03:19:12.588Z,4.93
2022-09-05T03:22:09.286Z,4.80
2022-09-05T03:25:00.249Z,5.23
2022-09-05T03:28:04.809Z,5.03
2022-09-05T03:30:41.190Z,4.73
2022-09-05T03:33:33.976Z,4.83
2022-09-05T03:36:28.390Z,5.13
2022-09-05T03:39:31.695Z,5.40
2022-09-05T03:42:31.591Z,5.27
2022-09-05T03:45:15.406Z,4.70
2022-09-05T03:48:24.716Z,4.60
2022-09-05T03:57:17.061Z,5.73
2022-09-05T03:57:20.828Z,4.83
2022-09-05T03:57:38.716Z,5.50
2022-09-05T04:00:11.401Z,5.17
2022-09-05T04:08:06.416Z,4.50
2022-09-05T04:08:16.189Z,4.40
2022-09-05T04:08:42.729Z,4.63
2022-09-05T04:11:16.099Z,3.90
2022-09-05T04:13:50.613Z,4.37
2022-09-05T04:16:20.221Z,4.23
2022-09-05T04:18:51.614Z,4.40
2022-09-05T04:21:22.866Z,4.73
2022-09-05T04:24:08.952Z,5.37
2022-09-05T04:26:47.394Z,5.60
2022-09-05T04:29:20.978Z,4.93
2022-09-05T04:32:17.918Z,4.50
2022-09-05T04:34:51.270Z,4.83
2022-09-05T04:37:47.832Z,4.50
2022-09-05T04:40:33.208Z,4.43
2022-09-05T04:43:03.652Z,4.73
2022-09-05T04:45:40.875Z,4.70
2022-09-05T04:48:12.132Z,5.07
2022-09-05T04:50:46.591Z,5.03
2022-09-05T04:53:20.654Z,4.90
2022-09-05T04:55:51.160Z,5.13
2022-09-05T04:58:27.507Z,5.43
2022-09-05T05:06:03.004Z,5.63
2022-09-05T05:06:12.052Z,5.20
2022-09-05T05:07:07.688Z,4.97
2022-09-05T05:09:40.720Z,5.30
2022-09-05T05:17:54.817Z,5.57
2022-09-05T05:18:08.288Z,5.03
2022-09-05T05:18:42.414Z,6.23
2022-09-05T05:20:50.125Z,6.40
2022-09-05T05:23:19.556Z,6.50
2022-09-05T05:25:51.798Z,6.10
2022-09-05T05:28:26.903Z,6.23
2022-09-05T05:31:01.520Z,6.23
2022-09-05T05:33:33.732Z,6.93
2022-09-05T05:36:03.044Z,6.77
2022-09-05T05:38:37.792Z,6.50
2022-09-05T05:41:10.983Z,6.30
2022-09-05T05:43:45.501Z,5.57
2022-09-05T05:46:16.468Z,5.27
2022-09-05T05:48:51.765Z,5.17
2022-09-05T05:51:53.353Z,5.53
2022-09-05T05:54:28.124Z,5.60
2022-09-05T05:57:23.809Z,4.63
2022-09-05T05:59:59.105Z,4.90
2022-09-05T06:03:25.657Z,4.27
2022-09-05T06:06:16.333Z,3.83
2022-09-05T06:11:20.432Z,4.30
2022-09-05T06:14:57.751Z,4.57
2022-09-05T06:16:01.476Z,4.80
2022-09-05T06:19:25.442Z,4.00
2022-09-05T06:22:44.506Z,4.10
2022-09-05T06:25:46.013Z,3.80
2022-09-05T06:28:21.217Z,3.50
2022-09-05T06:31:22.535Z,3.90
2022-09-05T06:33:52.419Z,3.70
2022-09-05T06:36:32.615Z,3.80
2022-09-05T06:39:07.466Z,3.97
2022-09-05T06:41:42.563Z,4.03
2022-09-05T06:44:38.234Z,3.93
2022-09-05T06:47:24.389Z,4.27
2022-09-05T06:50:24.186Z,3.47
2022-09-05T06:53:25.239Z,4.03
2022-09-05T06:56:00.349Z,4.43
2022-09-05T06:59:08.994Z,4.30
2022-09-05T07:02:00.622Z,4.17
2022-09-05T07:05:18.449Z,3.70
2022-09-05T07:07:24.782Z,4.23
2022-09-05T07:09:59.407Z,3.53
2022-09-05T07:12:30.473Z,4.00
2022-09-05T07:15:08.600Z,3.60
2022-09-05T07:18:09.674Z,3.83
2022-09-05T07:21:17.135Z,3.83
2022-09-05T07:24:10.272Z,3.40
2022-09-05T07:26:52.113Z,3.83
2022-09-05T07:29:27.634Z,3.87
2022-09-05T07:31:57.426Z,4.17
2022-09-05T07:34:28.988Z,4.10
2022-09-05T07:37:14.773Z,3.67
2022-09-05T07:39:46.465Z,3.63
2022-09-05T07:42:18.192Z,3.90
2022-09-05T07:44:50.224Z,3.70
2022-09-05T07:47:22.256Z,3.70
2022-09-05T07:50:20.997Z,3.30
2022-09-05T07:57:00.668Z,3.43
2022-09-05T07:57:08.677Z,4.50
2022-09-05T07:58:21.400Z,3.77
2022-09-05T08:00:53.032Z,3.60
2022-09-05T08:03:26.618Z,3.30
2022-09-05T08:05:55.449Z,3.10
2022-09-05T08:08:25.875Z,4.07
2022-09-05T08:11:24.878Z,3.20
2022-09-05T08:13:52.563Z,3.00
2022-09-05T08:16:23.302Z,3.63
2022-09-05T08:18:57.034Z,3.73
2022-09-05T08:21:28.055Z,3.03
2022-09-05T08:24:05.528Z,3.73
2022-09-05T08:26:47.088Z,3.13
2022-09-05T08:29:22.959Z,3.17
2022-09-05T08:31:52.770Z,3.00
2022-09-05T08:34:32.779Z,3.00
2022-09-05T08:37:13.916Z,3.27
2022-09-05T08:39:49.853Z,3.00
2022-09-05T08:42:52.741Z,3.30
2022-09-05T08:46:47.737Z,3.80
2022-09-05T08:48:35.812Z,2.63
2022-09-05T08:51:14.960Z,2.10
2022-09-05T08:53:54.545Z,3.37
2022-09-05T08:56:23.355Z,3.53
2022-09-05T08:59:27.635Z,3.37
2022-09-05T09:02:00.760Z,2.80
2022-09-05T09:05:02.566Z,3.30
2022-09-05T09:07:47.285Z,2.60
2022-09-05T09:10:28.443Z,2.97
2022-09-05T09:13:08.497Z,2.33
2022-09-05T09:15:38.722Z,2.50
2022-09-05T09:18:14.810Z,3.90
2022-09-05T09:20:51.898Z,2.93
2022-09-05T09:23:38.910Z,2.23
2022-09-05T09:26:15.752Z,2.70
2022-09-05T09:28:56.882Z,2.63
2022-09-05T09:31:48.094Z,2.70
2022-09-05T09:34:38.189Z,2.50
2022-09-05T09:37:51.823Z,1.90
2022-09-05T09:41:02.661Z,1.90
2022-09-05T09:43:53.078Z,1.70
2022-09-05T09:46:28.310Z,2.30
2022-09-05T09:49:22.905Z,1.83
2022-09-05T09:52:36.470Z,2.00
2022-09-05T09:55:42.478Z,1.90
2022-09-05T09:58:29.260Z,2.30
2022-09-05T10:01:35.000Z,2.00
2022-09-05T10:10:32.867Z,2.10
2022-09-05T10:10:45.889Z,2.53
2022-09-05T10:10:46.047Z,1.83
2022-09-05T10:13:28.780Z,2.47
2022-09-05T10:16:16.480Z,2.17
2022-09-05T10:18:54.466Z,2.00
2022-09-05T10:21:32.345Z,1.92
2022-09-05T10:24:35.282Z,2.20
2022-09-05T10:27:44.524Z,2.28
2022-09-05T10:30:25.303Z,2.17
2022-09-05T10:35:08.367Z,2.10
2022-09-05T10:36:23.494Z,2.20
2022-09-05T10:39:00.925Z,2.72
2022-09-05T10:41:50.946Z,2.22
2022-09-05T10:44:25.080Z,1.92
2022-09-05T10:46:59.885Z,2.03
2022-09-05T10:49:30.161Z,2.00
2022-09-05T10:52:13.152Z,1.80
2022-09-05T10:55:14.318Z,2.20
2022-09-05T10:57:55.909Z,1.95
2022-09-05T11:02:20.428Z,2.03
2022-09-05T11:03:45.915Z,1.77
2022-09-05T11:06:16.677Z,2.00
2022-09-05T11:08:58.722Z,1.70
2022-09-05T11:11:34.666Z,1.88
2022-09-05T11:14:07.241Z,1.85
2022-09-05T11:16:51.083Z,2.00
2022-09-05T11:19:22.170Z,2.00
2022-09-05T11:22:04.066Z,2.42
2022-09-05T11:24:50.175Z,1.80
2022-09-05T11:27:29.167Z,2.00
2022-09-05T11:30:00.824Z,2.10
2022-09-05T11:36:32.346Z,2.05
2022-09-05T11:40:00.458Z,1.85
2022-09-05T11:40:07.457Z,1.90
2022-09-05T11:42:17.740Z,1.83
2022-09-05T11:45:12.078Z,2.15
2022-09-05T11:48:10.512Z,1.80
2022-09-05T11:51:00.844Z,1.70
2022-09-05T11:53:42.193Z,1.83
2022-09-05T11:56:29.993Z,2.00
2022-09-05T11:59:33.660Z,2.38
2022-09-05T12:02:23.927Z,2.15
2022-09-05T12:05:49.079Z,2.13
2022-09-05T12:07:57.397Z,2.03
2022-09-05T12:10:43.380Z,1.90
2022-09-05T12:13:26.383Z,2.05
2022-09-05T12:16:07.741Z,1.60
2022-09-05T12:18:45.928Z,2.13
2022-09-05T12:21:25.765Z,1.83
2022-09-05T12:25:16.566Z,2.15
2022-09-05T12:27:43.795Z,1.98
2022-09-05T12:29:50.023Z,1.80
2022-09-05T12:33:47.906Z,1.98
2022-09-05T12:36:10.010Z,1.63
2022-09-05T12:40:55.969Z,1.92
2022-09-05T12:41:40.752Z,2.00
2022-09-05T12:44:41.358Z,1.70
2022-09-05T12:47:19.819Z,1.70
2022-09-05T12:50:02.786Z,1.63
2022-09-05T12:52:44.113Z,1.80
2022-09-05T12:55:25.920Z,2.00
2022-09-05T13:03:03.073Z,1.95
2022-09-05T13:03:13.669Z,1.83
2022-09-05T13:03:53.336Z,1.70
2022-09-05T13:06:27.322Z,1.80
2022-09-05T13:09:02.800Z,1.85
2022-09-05T13:14:50.340Z,1.70
2022-09-05T13:15:06.146Z,1.95
2022-09-05T13:17:14.386Z,1.83
2022-09-05T13:19:51.392Z,1.58
2022-09-05T13:22:24.559Z,1.75
2022-09-05T13:25:00.872Z,1.50
2022-09-05T13:27:31.869Z,1.60
2022-09-05T13:31:40.677Z,1.50
2022-09-05T13:37:56.504Z,1.67
2022-09-05T13:38:11.510Z,1.60
2022-09-05T13:38:51.804Z,1.65
2022-09-05T13:41:28.385Z,1.35
2022-09-05T13:44:00.554Z,1.40
2022-09-05T13:46:58.220Z,1.10
2022-09-05T13:49:31.635Z,1.73
2022-09-05T13:52:09.747Z,1.45
2022-09-05T13:54:42.189Z,1.60
2022-09-05T13:57:32.441Z,1.77
2022-09-05T14:00:27.722Z,1.50
2022-09-05T14:03:38.380Z,1.60
2022-09-05T14:06:47.474Z,1.70
2022-09-05T14:09:39.799Z,1.60
2022-09-05T14:12:12.620Z,1.70
2022-09-05T14:17:54.172Z,1.55
2022-09-05T14:20:44.050Z,1.48
2022-09-05T14:23:17.706Z,1.63
2022-09-05T14:25:49.982Z,1.80
2022-09-05T14:28:27.352Z,1.60
2022-09-05T14:37:40.804Z,1.52
2022-09-05T14:37:45.288Z,1.50
2022-09-05T14:37:50.191Z,1.60
2022-09-05T14:40:29.983Z,1.70
2022-09-05T14:43:27.022Z,1.63
2022-09-05T14:46:10.235Z,1.88
2022-09-05T14:48:56.345Z,1.67
2022-09-05T14:51:30.742Z,1.80
2022-09-05T14:54:02.547Z,1.70
2022-09-05T14:59:44.893Z,1.73
2022-09-05T15:02:48.939Z,1.90
2022-09-05T15:02:57.367Z,1.77
2022-09-05T15:05:16.449Z,1.63
2022-09-05T15:07:45.534Z,1.63
2022-09-05T15:12:21.290Z,1.83
2022-09-05T15:13:25.682Z,1.77
2022-09-05T15:16:02.789Z,1.50
2022-09-05T15:18:33.580Z,1.55
2022-09-05T15:21:30.754Z,1.80
2022-09-05T15:24:12.902Z,1.65
2022-09-05T15:26:53.043Z,1.88
2022-09-05T15:29:23.629Z,1.70
2022-09-05T15:31:54.579Z,1.40
2022-09-05T15:34:38.480Z,1.50
2022-09-05T15:37:22.837Z,1.67
2022-09-05T15:40:01.255Z,1.70
2022-09-05T15:42:32.550Z,1.77
2022-09-05T15:45:10.454Z,1.73
2022-09-05T15:47:41.773Z,1.60
2022-09-05T15:50:21.799Z,1.50
2022-09-05T15:52:55.701Z,1.60
2022-09-05T15:55:26.576Z,1.80
2022-09-05T15:57:57.727Z,1.65
2022-09-05T16:00:43.649Z,1.60
2022-09-05T16:05:02.322Z,2.00
2022-09-05T16:10:36.097Z,1.50
2022-09-05T16:10:38.653Z,1.65
2022-09-05T16:12:14.308Z,1.80
2022-09-05T16:15:01.760Z,1.65
2022-09-05T16:23:12.305Z,1.70
2022-09-05T16:23:23.752Z,1.80
2022-09-05T16:23:40.598Z,1.48
2022-09-05T16:26:12.122Z,1.60
2022-09-05T16:28:47.155Z,1.70
2022-09-05T16:31:21.281Z,1.85
2022-09-05T16:33:49.501Z,1.55
2022-09-05T16:36:19.027Z,2.00
2022-09-05T16:38:50.749Z,1.42
2022-09-05T16:41:24.561Z,1.60
2022-09-05T16:43:55.868Z,1.75
2022-09-05T16:46:28.187Z,1.65
2022-09-05T16:49:00.682Z,1.58
2022-09-05T16:51:36.480Z,1.77
2022-09-05T16:54:10.954Z,1.90
2022-09-05T16:56:41.902Z,1.90
2022-09-05T16:59:12.012Z,1.67
2022-09-05T17:02:09.213Z,1.73
2022-09-05T17:05:05.001Z,1.65
2022-09-05T17:07:55.521Z,1.80
2022-09-05T17:10:26.656Z,1.73
2022-09-05T17:12:54.882Z,1.80
2022-09-05T17:15:27.606Z,1.70
2022-09-05T17:18:22.266Z,1.92
2022-09-05T17:20:51.505Z,1.67
2022-09-05T17:26:36.979Z,2.20
2022-09-05T17:29:23.729Z,1.70
2022-09-05T17:30:21.943Z,1.90
2022-09-05T17:31:57.559Z,1.75
2022-09-05T17:34:48.124Z,1.95
2022-09-05T17:37:26.379Z,1.98
2022-09-05T17:40:00.571Z,1.60
2022-09-05T17:42:37.718Z,1.90
2022-09-05T17:45:16.425Z,1.60
2022-09-05T17:47:48.285Z,1.85
2022-09-05T17:50:23.016Z,1.65
2022-09-05T17:53:26.002Z,1.80
2022-09-05T17:56:14.297Z,1.50
2022-09-05T17:59:03.865Z,1.95
2022-09-05T18:01:32.404Z,1.45
2022-09-05T18:04:16.070Z,1.88
2022-09-05T18:06:59.018Z,2.13
2022-09-05T18:10:07.616Z,1.80
2022-09-05T18:13:13.713Z,1.80
2022-09-05T18:16:02.949Z,1.98
2022-09-05T18:19:32.888Z,1.95
2022-09-05T18:21:25.156Z,1.67
2022-09-05T18:24:00.667Z,1.80
2022-09-05T18:26:29.358Z,1.48
2022-09-05T18:29:03.872Z,1.92
2022-09-05T18:32:02.693Z,2.20
2022-09-05T18:34:45.228Z,1.90
2022-09-05T18:38:00.042Z,1.70
2022-09-05T18:40:48.615Z,1.50
2022-09-05T18:43:33.552Z,1.77
2022-09-05T18:46:08.320Z,1.90
2022-09-05T18:48:44.742Z,1.80
2022-09-05T18:51:35.450Z,1.57
2022-09-05T18:54:05.478Z,1.90
2022-09-05T18:57:12.053Z,2.03
2022-09-05T18:59:30.551Z,1.80
2022-09-05T19:02:04.487Z,1.90
2022-09-05T19:04:40.817Z,1.60
2022-09-05T19:07:11.836Z,1.70
2022-09-05T19:09:56.915Z,2.27
2022-09-05T19:12:33.908Z,1.70
2022-09-05T19:15:08.415Z,1.90
2022-09-05T19:17:38.319Z,2.60
2022-09-05T19:20:32.613Z,3.10
2022-09-05T19:23:09.829Z,2.27
2022-09-05T19:25:41.729Z,2.20
2022-09-05T19:33:50.489Z,2.40
2022-09-05T19:36:58.521Z,2.00
2022-09-05T19:37:10.873Z,2.00
2022-09-05T19:37:22.506Z,1.67
2022-09-05T19:42:04.574Z,1.80
2022-09-05T19:47:35.917Z,1.90
2022-09-05T19:47:36.392Z,1.60
2022-09-05T19:48:17.928Z,1.57
2022-09-05T19:50:47.160Z,1.83
2022-09-05T19:53:16.260Z,1.70
2022-09-05T19:55:44.690Z,1.63
2022-09-05T19:58:19.843Z,1.63
2022-09-05T20:01:02.361Z,2.00
2022-09-05T20:03:38.261Z,1.93
2022-09-05T20:06:29.383Z,1.90
2022-09-05T20:09:09.587Z,2.00
2022-09-05T20:11:45.702Z,1.77
2022-09-05T20:14:19.497Z,2.10
2022-09-05T20:16:50.105Z,1.80
2022-09-05T20:19:30.598Z,1.73
2022-09-05T20:22:14.339Z,1.77
2022-09-05T20:24:49.091Z,1.83
2022-09-05T20:27:17.145Z,1.67
2022-09-05T20:29:54.789Z,1.70
2022-09-05T20:32:39.567Z,1.77
2022-09-05T20:39:26.608Z,1.70
2022-09-05T20:43:23.017Z,1.60
2022-09-05T20:43:24.765Z,1.83
2022-09-05T20:43:52.629Z,1.90
2022-09-05T20:49:00.848Z,1.60
2022-09-05T20:54:05.982Z,1.93
2022-09-05T20:54:19.245Z,1.90
2022-09-05T20:55:39.434Z,2.00
2022-09-05T20:58:09.348Z,1.90
2022-09-05T21:00:38.949Z,1.80
2022-09-05T21:03:09.102Z,1.70
2022-09-05T21:05:39.920Z,1.63
2022-09-05T21:08:24.938Z,1.70
2022-09-05T21:10:55.706Z,2.00
2022-09-05T21:13:25.871Z,1.80
2022-09-05T21:15:54.751Z,2.00
2022-09-05T21:18:29.999Z,1.70
2022-09-05T21:21:28.119Z,1.90
2022-09-05T21:24:16.858Z,1.60
2022-09-05T21:26:47.707Z,1.97
2022-09-05T21:29:17.550Z,1.80
2022-09-05T21:31:49.242Z,1.83
2022-09-05T21:34:25.268Z,2.00
2022-09-05T21:37:06.462Z,2.00
2022-09-05T21:39:38.197Z,2.07
2022-09-05T21:43:38.872Z,2.20
2022-09-05T21:47:37.389Z,1.90
2022-09-05T21:47:52.346Z,2.07
2022-09-05T21:50:31.343Z,1.70
2022-09-05T21:54:28.025Z,1.90
2022-09-05T21:59:16.153Z,1.80
2022-09-05T21:59:21.007Z,2.33
2022-09-05T22:01:48.884Z,2.37
2022-09-05T22:04:17.446Z,1.97
2022-09-05T22:06:48.360Z,1.87
2022-09-05T22:09:18.404Z,2.07
2022-09-05T22:11:51.116Z,2.00
2022-09-05T22:14:19.218Z,1.80
2022-09-05T22:16:47.604Z,2.03
2022-09-05T22:19:17.774Z,1.80
2022-09-05T22:21:45.522Z,2.53
2022-09-05T22:24:13.619Z,1.93
2022-09-05T22:27:01.521Z,1.80
2022-09-05T22:29:34.507Z,2.20
2022-09-05T22:32:02.222Z,1.97
2022-09-05T22:34:29.898Z,1.80
2022-09-05T22:36:57.812Z,1.80
2022-09-05T22:39:35.501Z,1.80
2022-09-05T22:42:10.540Z,2.53
2022-09-05T22:44:39.499Z,2.10
2022-09-05T22:47:07.302Z,2.10
2022-09-05T22:49:36.315Z,2.30
2022-09-05T22:52:05.368Z,2.00
2022-09-05T22:54:33.061Z,1.60
2022-09-05T22:57:00.724Z,2.20
2022-09-05T22:59:29.913Z,2.20
2022-09-05T23:01:57.620Z,2.13
2022-09-05T23:04:25.800Z,1.87
2022-09-05T23:06:53.526Z,1.70
2022-09-05T23:09:21.283Z,1.90
2022-09-05T23:11:48.983Z,1.83
2022-09-05T23:14:16.631Z,1.90
2022-09-05T23:16:45.729Z,2.00
2022-09-05T23:19:13.323Z,1.77
2022-09-05T23:21:40.959Z,2.00
2022-09-05T23:24:08.604Z,1.83
2022-09-05T23:26:36.200Z,1.90
2022-09-05T23:29:03.797Z,2.00
2022-09-05T23:31:31.502Z,2.03
2022-09-05T23:34:00.505Z,1.80
2022-09-05T23:36:28.227Z,2.03
2022-09-05T23:38:56.124Z,2.30
2022-09-05T23:41:23.763Z,2.30
2022-09-05T23:43:51.490Z,2.37
2022-09-05T23:46:19.139Z,2.37
2022-09-05T23:48:46.870Z,2.50
2022-09-05T23:51:15.861Z,2.20
2022-09-05T23:53:43.896Z,2.20
2022-09-05T23:56:12.274Z,2.10
2022-09-05T23:58:40.085Z,2.47
